<?xml version='1.0' encoding='UTF-8'?><gpx version="1.1" creator="JPX - https://github.com/jenetics/jpx" xmlns="http://www.topografix.com/GPX/1/1"><trk><trkseg><trkpt lat="37.11099718413134" lon="13.941625873665684"><ele>15.0</ele><time>2026-04-12T09:30:53.001Z</time></trkpt><trkpt lat="37.11091639053163" lon="13.941561988776899"><ele>15.0</ele><time>2026-04-12T09:30:56.001Z</time></trkpt><trkpt lat="37.110843444913336" lon="13.941523168857335"><ele>15.0</ele><time>2026-04-12T09:30:57.001Z</time></trkpt><trkpt lat="37.11077533060711" lon="13.941538134652774"><ele>15.0</ele><time>2026-04-12T09:30:59.001Z</time></trkpt><trkpt lat="37.110654462790016" lon="13.941504806955011"><ele>15.0</ele><time>2026-04-12T09:31:01.001Z</time></trkpt><trkpt lat="37.11057904318754" lon="13.941462995446308"><ele>14.0</ele><time>2026-04-12T09:31:02.001Z</time></trkpt><trkpt lat="37.11049280880344" lon="13.941437211751419"><ele>13.0</ele><time>2026-04-12T09:31:03.001Z</time></trkpt><trkpt lat="37.11039534117892" lon="13.941418771750584"><ele>12.0</ele><time>2026-04-12T09:31:04.001Z</time></trkpt><trkpt lat="37.11028547808268" lon="13.941381962608922"><ele>11.0</ele><time>2026-04-12T09:31:05.001Z</time></trkpt><trkpt lat="37.110172703935866" lon="13.941339109472107"><ele>10.0</ele><time>2026-04-12T09:31:06.001Z</time></trkpt><trkpt lat="37.11005161458977" lon="13.941283981984565"><ele>10.0</ele><time>2026-04-12T09:31:07.001Z</time></trkpt><trkpt lat="37.109931152425794" lon="13.94122252867551"><ele>10.0</ele><time>2026-04-12T09:31:08.001Z</time></trkpt><trkpt lat="37.109795230238134" lon="13.941180349467595"><ele>10.0</ele><time>2026-04-12T09:31:09.001Z</time></trkpt><trkpt lat="37.1097182167788" lon="13.941145712558747"><ele>10.0</ele><time>2026-04-12T09:31:10.001Z</time></trkpt><trkpt lat="37.10965164599616" lon="13.94110635380474"><ele>10.0</ele><time>2026-04-12T09:31:11.001Z</time></trkpt><trkpt lat="37.10958858176606" lon="13.941038916067663"><ele>9.833333333333334</ele><time>2026-04-12T09:31:13.001Z</time></trkpt><trkpt lat="37.10956063815935" lon="13.940936745190028"><ele>9.666666666666668</ele><time>2026-04-12T09:31:16.001Z</time></trkpt><trkpt lat="37.109515157605124" lon="13.940845279623304"><ele>9.5</ele><time>2026-04-12T09:31:18.001Z</time></trkpt><trkpt lat="37.109479274276914" lon="13.940777959268647"><ele>9.333333333333334</ele><time>2026-04-12T09:31:19.001Z</time></trkpt><trkpt lat="37.10943819480291" lon="13.940689932103956"><ele>9.166666666666666</ele><time>2026-04-12T09:31:20.001Z</time></trkpt><trkpt lat="37.10939089879764" lon="13.940590339542062"><ele>9.0</ele><time>2026-04-12T09:31:21.001Z</time></trkpt><trkpt lat="37.109330390816815" lon="13.940469481715954"><ele>9.0</ele><time>2026-04-12T09:31:22.001Z</time></trkpt><trkpt lat="37.10928575066891" lon="13.94032393719635"><ele>9.0</ele><time>2026-04-12T09:31:23.002Z</time></trkpt><trkpt lat="37.10923275547218" lon="13.940200366542403"><ele>9.0</ele><time>2026-04-12T09:31:24.002Z</time></trkpt><trkpt lat="37.109189604422696" lon="13.94010008527737"><ele>9.0</ele><time>2026-04-12T09:31:25.002Z</time></trkpt><trkpt lat="37.10914850568118" lon="13.940003318986454"><ele>9.0</ele><time>2026-04-12T09:31:26.002Z</time></trkpt><trkpt lat="37.10910410047898" lon="13.93990377234199"><ele>8.5</ele><time>2026-04-12T09:31:27.002Z</time></trkpt><trkpt lat="37.10904812061904" lon="13.939788024731191"><ele>8.0</ele><time>2026-04-12T09:31:28.002Z</time></trkpt><trkpt lat="37.10898979401384" lon="13.939659434959335"><ele>7.5</ele><time>2026-04-12T09:31:29.002Z</time></trkpt><trkpt lat="37.108931458820194" lon="13.939524398197731"><ele>7.0</ele><time>2026-04-12T09:31:30.002Z</time></trkpt><trkpt lat="37.108872922089766" lon="13.939387754227377"><ele>7.0</ele><time>2026-04-12T09:31:31.002Z</time></trkpt><trkpt lat="37.10881194868209" lon="13.939250547834192"><ele>7.0</ele><time>2026-04-12T09:31:32.002Z</time></trkpt><trkpt lat="37.1087500950996" lon="13.939117198955833"><ele>7.0</ele><time>2026-04-12T09:31:33.002Z</time></trkpt><trkpt lat="37.108693686020516" lon="13.938987275650687"><ele>7.0</ele><time>2026-04-12T09:31:34.002Z</time></trkpt><trkpt lat="37.10863628329158" lon="13.9388682758241"><ele>6.75</ele><time>2026-04-12T09:31:35.002Z</time></trkpt><trkpt lat="37.10857972146872" lon="13.938741638664244"><ele>6.5</ele><time>2026-04-12T09:31:36.002Z</time></trkpt><trkpt lat="37.108523283328715" lon="13.93861016980156"><ele>6.25</ele><time>2026-04-12T09:31:37.002Z</time></trkpt><trkpt lat="37.108468339178245" lon="13.938485753090298"><ele>6.0</ele><time>2026-04-12T09:31:38.002Z</time></trkpt><trkpt lat="37.10841682945443" lon="13.938368219045383"><ele>5.3999999999999995</ele><time>2026-04-12T09:31:39.002Z</time></trkpt><trkpt lat="37.10836591926445" lon="13.938254159553049"><ele>4.8</ele><time>2026-04-12T09:31:40.002Z</time></trkpt><trkpt lat="37.10831648603608" lon="13.93814087521818"><ele>4.199999999999999</ele><time>2026-04-12T09:31:41.002Z</time></trkpt><trkpt lat="37.108265524300435" lon="13.938026397804418"><ele>3.5999999999999996</ele><time>2026-04-12T09:31:42.002Z</time></trkpt><trkpt lat="37.108213161754726" lon="13.937912766621514"><ele>3.0</ele><time>2026-04-12T09:31:43.002Z</time></trkpt><trkpt lat="37.10816227414613" lon="13.937794692047374"><ele>3.0</ele><time>2026-04-12T09:31:44.002Z</time></trkpt><trkpt lat="37.10811604511097" lon="13.93767971247976"><ele>3.0</ele><time>2026-04-12T09:31:45.002Z</time></trkpt><trkpt lat="37.1080612392683" lon="13.93756428499555"><ele>3.0</ele><time>2026-04-12T09:31:46.002Z</time></trkpt><trkpt lat="37.10801189081893" lon="13.937449967053986"><ele>3.0</ele><time>2026-04-12T09:31:47.002Z</time></trkpt><trkpt lat="37.10796528682912" lon="13.937339067136357"><ele>3.0</ele><time>2026-04-12T09:31:48.002Z</time></trkpt><trkpt lat="37.107915865585596" lon="13.937231160615905"><ele>3.5999999999999996</ele><time>2026-04-12T09:31:49.002Z</time></trkpt><trkpt lat="37.10787119923468" lon="13.937123799941956"><ele>4.199999999999999</ele><time>2026-04-12T09:31:50.002Z</time></trkpt><trkpt lat="37.107824381059636" lon="13.937018794305876"><ele>4.8</ele><time>2026-04-12T09:31:51.002Z</time></trkpt><trkpt lat="37.10777567158094" lon="13.936911511179678"><ele>5.3999999999999995</ele><time>2026-04-12T09:31:52.002Z</time></trkpt><trkpt lat="37.10773172168545" lon="13.936808260950427"><ele>6.0</ele><time>2026-04-12T09:31:53.002Z</time></trkpt><trkpt lat="37.10768874437201" lon="13.936706587816273"><ele>6.0</ele><time>2026-04-12T09:31:54.002Z</time></trkpt><trkpt lat="37.10764419346962" lon="13.93661300413194"><ele>6.0</ele><time>2026-04-12T09:31:55.002Z</time></trkpt><trkpt lat="37.10760482720349" lon="13.9365229712003"><ele>6.0</ele><time>2026-04-12T09:31:56.002Z</time></trkpt><trkpt lat="37.10756353196861" lon="13.936424351298827"><ele>6.0</ele><time>2026-04-12T09:31:57.002Z</time></trkpt><trkpt lat="37.10751679193875" lon="13.936331429708162"><ele>6.0</ele><time>2026-04-12T09:31:58.002Z</time></trkpt><trkpt lat="37.10747418602096" lon="13.936231943736797"><ele>6.0</ele><time>2026-04-12T09:31:59.002Z</time></trkpt><trkpt lat="37.107435133754926" lon="13.936140711241947"><ele>6.833333333333333</ele><time>2026-04-12T09:32:00.002Z</time></trkpt><trkpt lat="37.10739619327373" lon="13.936056607154592"><ele>7.666666666666666</ele><time>2026-04-12T09:32:01.002Z</time></trkpt><trkpt lat="37.107362476120755" lon="13.935981303477114"><ele>8.5</ele><time>2026-04-12T09:32:02.002Z</time></trkpt><trkpt lat="37.107305046588685" lon="13.935849665893421"><ele>9.333333333333332</ele><time>2026-04-12T09:32:04.002Z</time></trkpt><trkpt lat="37.10726038808544" lon="13.935759859457308"><ele>10.166666666666666</ele><time>2026-04-12T09:32:06.002Z</time></trkpt><trkpt lat="37.10721344464131" lon="13.935664338012792"><ele>11.0</ele><time>2026-04-12T09:32:09.003Z</time></trkpt><trkpt lat="37.107174861295285" lon="13.935577151737677"><ele>11.666666666666666</ele><time>2026-04-12T09:32:11.003Z</time></trkpt><trkpt lat="37.10713753068137" lon="13.93550499709666"><ele>12.333333333333332</ele><time>2026-04-12T09:32:12.003Z</time></trkpt><trkpt lat="37.10708213429771" lon="13.93541540362405"><ele>13.0</ele><time>2026-04-12T09:32:13.003Z</time></trkpt><trkpt lat="37.10703756294787" lon="13.935319053023669"><ele>13.666666666666666</ele><time>2026-04-12T09:32:14.003Z</time></trkpt><trkpt lat="37.106993625543296" lon="13.935224072819105"><ele>14.333333333333334</ele><time>2026-04-12T09:32:15.003Z</time></trkpt><trkpt lat="37.106941420900945" lon="13.935109643172968"><ele>15.0</ele><time>2026-04-12T09:32:17.003Z</time></trkpt><trkpt lat="37.10689263079668" lon="13.935001178327102"><ele>15.833333333333334</ele><time>2026-04-12T09:32:19.003Z</time></trkpt><trkpt lat="37.1068601050516" lon="13.934887725031532"><ele>16.666666666666668</ele><time>2026-04-12T09:32:21.003Z</time></trkpt><trkpt lat="37.10680196080585" lon="13.934777464319874"><ele>17.5</ele><time>2026-04-12T09:32:23.003Z</time></trkpt><trkpt lat="37.10677188518057" lon="13.934704812671193"><ele>18.333333333333336</ele><time>2026-04-12T09:32:24.003Z</time></trkpt><trkpt lat="37.106733163161955" lon="13.9346408103714"><ele>19.166666666666668</ele><time>2026-04-12T09:32:25.003Z</time></trkpt><trkpt lat="37.10669096885535" lon="13.93454715046686"><ele>20.0</ele><time>2026-04-12T09:32:27.003Z</time></trkpt><trkpt lat="37.10665717208029" lon="13.934472183909067"><ele>20.0</ele><time>2026-04-12T09:32:29.003Z</time></trkpt><trkpt lat="37.10661249856137" lon="13.934377537613571"><ele>20.0</ele><time>2026-04-12T09:32:32.003Z</time></trkpt><trkpt lat="37.10657784163363" lon="13.934304070655886"><ele>20.0</ele><time>2026-04-12T09:32:36.003Z</time></trkpt><trkpt lat="37.10653449118408" lon="13.934212174868938"><ele>20.0</ele><time>2026-04-12T09:32:42.003Z</time></trkpt><trkpt lat="37.106496311094325" lon="13.934131239389696"><ele>20.0</ele><time>2026-04-12T09:32:46.003Z</time></trkpt><trkpt lat="37.10655688504748" lon="13.934052905455165"><ele>20.0</ele><time>2026-04-12T09:32:47.003Z</time></trkpt><trkpt lat="37.106635538207485" lon="13.933995544543759"><ele>20.333333333333336</ele><time>2026-04-12T09:32:50.003Z</time></trkpt><trkpt lat="37.10665553765133" lon="13.933896121291287"><ele>20.666666666666668</ele><time>2026-04-12T09:32:53.003Z</time></trkpt><trkpt lat="37.1066189067953" lon="13.933810196077888"><ele>21.0</ele><time>2026-04-12T09:32:55.003Z</time></trkpt><trkpt lat="37.10659412945787" lon="13.9337358643527"><ele>21.333333333333332</ele><time>2026-04-12T09:32:56.004Z</time></trkpt><trkpt lat="37.1065584703264" lon="13.933658981780347"><ele>21.666666666666664</ele><time>2026-04-12T09:32:57.004Z</time></trkpt><trkpt lat="37.10651402822025" lon="13.933580756040307"><ele>22.0</ele><time>2026-04-12T09:32:58.004Z</time></trkpt><trkpt lat="37.10646864406701" lon="13.93348147034638"><ele>22.6</ele><time>2026-04-12T09:32:59.004Z</time></trkpt><trkpt lat="37.10641416257269" lon="13.933362282644579"><ele>23.200000000000003</ele><time>2026-04-12T09:33:00.004Z</time></trkpt><trkpt lat="37.10637406155695" lon="13.933274554730458"><ele>23.8</ele><time>2026-04-12T09:33:01.004Z</time></trkpt><trkpt lat="37.10632692020763" lon="13.933154260735783"><ele>24.4</ele><time>2026-04-12T09:33:03.004Z</time></trkpt><trkpt lat="37.10637223372752" lon="13.933008779075719"><ele>25.0</ele><time>2026-04-12T09:33:06.004Z</time></trkpt><trkpt lat="37.106405505838616" lon="13.932892197099592"><ele>25.0</ele><time>2026-04-12T09:33:07.004Z</time></trkpt><trkpt lat="37.106457800367785" lon="13.932771039732772"><ele>25.0</ele><time>2026-04-12T09:33:08.004Z</time></trkpt><trkpt lat="37.106529173513444" lon="13.932636731836682"><ele>25.0</ele><time>2026-04-12T09:33:09.004Z</time></trkpt><trkpt lat="37.10659412711317" lon="13.932500550428115"><ele>25.0</ele><time>2026-04-12T09:33:10.004Z</time></trkpt><trkpt lat="37.10665649990173" lon="13.93235216530773"><ele>26.25</ele><time>2026-04-12T09:33:11.004Z</time></trkpt><trkpt lat="37.106717253960085" lon="13.93219782126409"><ele>27.5</ele><time>2026-04-12T09:33:12.004Z</time></trkpt><trkpt lat="37.1067758859495" lon="13.932041196931802"><ele>28.75</ele><time>2026-04-12T09:33:13.004Z</time></trkpt><trkpt lat="37.10683734034313" lon="13.93188462817116"><ele>30.0</ele><time>2026-04-12T09:33:14.004Z</time></trkpt><trkpt lat="37.10687443398973" lon="13.931723750756008"><ele>30.75</ele><time>2026-04-12T09:33:15.004Z</time></trkpt><trkpt lat="37.10692761050495" lon="13.931589768469125"><ele>31.5</ele><time>2026-04-12T09:33:16.004Z</time></trkpt><trkpt lat="37.1069702243996" lon="13.93142628491484"><ele>32.25</ele><time>2026-04-12T09:33:17.004Z</time></trkpt><trkpt lat="37.10700451368864" lon="13.931257820924943"><ele>33.0</ele><time>2026-04-12T09:33:18.004Z</time></trkpt><trkpt lat="37.10703966839525" lon="13.93108885025759"><ele>33.0</ele><time>2026-04-12T09:33:19.004Z</time></trkpt><trkpt lat="37.107074999135" lon="13.93091911239205"><ele>33.0</ele><time>2026-04-12T09:33:20.004Z</time></trkpt><trkpt lat="37.107117961251866" lon="13.930756020087655"><ele>33.0</ele><time>2026-04-12T09:33:21.004Z</time></trkpt><trkpt lat="37.1071574129123" lon="13.930596001831352"><ele>33.0</ele><time>2026-04-12T09:33:22.004Z</time></trkpt><trkpt lat="37.10720254296706" lon="13.930433606677393"><ele>35.25</ele><time>2026-04-12T09:33:23.004Z</time></trkpt><trkpt lat="37.10722484589308" lon="13.930264861808949"><ele>37.5</ele><time>2026-04-12T09:33:24.004Z</time></trkpt><trkpt lat="37.107264861553446" lon="13.930113391700822"><ele>39.75</ele><time>2026-04-12T09:33:25.004Z</time></trkpt><trkpt lat="37.10729588601238" lon="13.929977682379057"><ele>42.0</ele><time>2026-04-12T09:33:26.004Z</time></trkpt><trkpt lat="37.10732037687242" lon="13.92986773301676"><ele>41.333333333333336</ele><time>2026-04-12T09:33:27.004Z</time></trkpt><trkpt lat="37.107351076615345" lon="13.929778669813043"><ele>40.666666666666664</ele><time>2026-04-12T09:33:28.004Z</time></trkpt><trkpt lat="37.10738173555609" lon="13.92969196157799"><ele>40.0</ele><time>2026-04-12T09:33:29.004Z</time></trkpt><trkpt lat="37.10742022105606" lon="13.929558361813484"><ele>39.33333333333333</ele><time>2026-04-12T09:33:31.004Z</time></trkpt><trkpt lat="37.10742810155843" lon="13.929476208489323"><ele>38.666666666666664</ele><time>2026-04-12T09:33:32.004Z</time></trkpt><trkpt lat="37.107453901245144" lon="13.92937898530976"><ele>38.0</ele><time>2026-04-12T09:33:33.004Z</time></trkpt><trkpt lat="37.10747353049495" lon="13.929298259546568"><ele>39.2</ele><time>2026-04-12T09:33:34.004Z</time></trkpt><trkpt lat="37.10749115915775" lon="13.929220355130527"><ele>40.4</ele><time>2026-04-12T09:33:35.004Z</time></trkpt><trkpt lat="37.107526433398895" lon="13.929089667145037"><ele>41.6</ele><time>2026-04-12T09:33:37.004Z</time></trkpt><trkpt lat="37.10754443625347" lon="13.9289639877549"><ele>42.800000000000004</ele><time>2026-04-12T09:33:39.004Z</time></trkpt><trkpt lat="37.107583199671794" lon="13.928796314084915"><ele>44.0</ele><time>2026-04-12T09:33:41.004Z</time></trkpt><trkpt lat="37.10757679768145" lon="13.928696891959428"><ele>44.0</ele><time>2026-04-12T09:33:42.004Z</time></trkpt><trkpt lat="37.10758550397455" lon="13.928614435745196"><ele>44.0</ele><time>2026-04-12T09:33:43.004Z</time></trkpt><trkpt lat="37.10759404801119" lon="13.928534276040683"><ele>44.0</ele><time>2026-04-12T09:33:44.005Z</time></trkpt><trkpt lat="37.10759660730508" lon="13.928431693458803"><ele>44.0</ele><time>2026-04-12T09:33:45.005Z</time></trkpt><trkpt lat="37.10758326215532" lon="13.928324301839126"><ele>44.0</ele><time>2026-04-12T09:33:46.005Z</time></trkpt><trkpt lat="37.107535737088504" lon="13.928223116847436"><ele>44.0</ele><time>2026-04-12T09:33:47.005Z</time></trkpt><trkpt lat="37.107472943327025" lon="13.928102980513984"><ele>44.75</ele><time>2026-04-12T09:33:48.005Z</time></trkpt><trkpt lat="37.107414964743626" lon="13.927974830432152"><ele>45.5</ele><time>2026-04-12T09:33:49.005Z</time></trkpt><trkpt lat="37.10736296679129" lon="13.92784280497564"><ele>46.25</ele><time>2026-04-12T09:33:50.005Z</time></trkpt><trkpt lat="37.10731057530615" lon="13.92770389900775"><ele>47.0</ele><time>2026-04-12T09:33:51.005Z</time></trkpt><trkpt lat="37.10725971211749" lon="13.927561876384877"><ele>51.0</ele><time>2026-04-12T09:33:52.005Z</time></trkpt><trkpt lat="37.1072245242819" lon="13.927406375836343"><ele>55.0</ele><time>2026-04-12T09:33:53.005Z</time></trkpt><trkpt lat="37.10720751627317" lon="13.92723334136295"><ele>59.0</ele><time>2026-04-12T09:33:54.005Z</time></trkpt><trkpt lat="37.10721611124851" lon="13.927045832738347"><ele>63.0</ele><time>2026-04-12T09:33:55.005Z</time></trkpt><trkpt lat="37.1072492723782" lon="13.926861495470959"><ele>63.0</ele><time>2026-04-12T09:33:56.005Z</time></trkpt><trkpt lat="37.10727253261472" lon="13.926670054415686"><ele>63.0</ele><time>2026-04-12T09:33:57.005Z</time></trkpt><trkpt lat="37.107300136419774" lon="13.92647341596051"><ele>63.0</ele><time>2026-04-12T09:33:58.005Z</time></trkpt><trkpt lat="37.10731089974052" lon="13.926270781744442"><ele>63.0</ele><time>2026-04-12T09:33:59.005Z</time></trkpt><trkpt lat="37.10730866247361" lon="13.926065517865755"><ele>63.0</ele><time>2026-04-12T09:34:00.005Z</time></trkpt><trkpt lat="37.10730736393279" lon="13.925869043212852"><ele>63.0</ele><time>2026-04-12T09:34:01.005Z</time></trkpt><trkpt lat="37.10731851944289" lon="13.925678264253794"><ele>65.0</ele><time>2026-04-12T09:34:02.005Z</time></trkpt><trkpt lat="37.10734093288183" lon="13.92549562266513"><ele>67.0</ele><time>2026-04-12T09:34:03.005Z</time></trkpt><trkpt lat="37.10738722292727" lon="13.925311111867765"><ele>69.0</ele><time>2026-04-12T09:34:04.005Z</time></trkpt><trkpt lat="37.10744977453042" lon="13.9251213667228"><ele>66.33333333333333</ele><time>2026-04-12T09:34:05.005Z</time></trkpt><trkpt lat="37.107507799035105" lon="13.924923878379985"><ele>63.666666666666664</ele><time>2026-04-12T09:34:06.005Z</time></trkpt><trkpt lat="37.10755883716471" lon="13.924724368368976"><ele>61.0</ele><time>2026-04-12T09:34:07.005Z</time></trkpt><trkpt lat="37.10760699288617" lon="13.92451868567806"><ele>61.0</ele><time>2026-04-12T09:34:08.005Z</time></trkpt><trkpt lat="37.1076330108523" lon="13.924318486297109"><ele>61.0</ele><time>2026-04-12T09:34:09.005Z</time></trkpt><trkpt lat="37.107645599533484" lon="13.924123931112048"><ele>61.0</ele><time>2026-04-12T09:34:10.005Z</time></trkpt><trkpt lat="37.107672369923584" lon="13.92395183993256"><ele>62.25</ele><time>2026-04-12T09:34:11.005Z</time></trkpt><trkpt lat="37.10771272430509" lon="13.923809299838423"><ele>63.5</ele><time>2026-04-12T09:34:12.005Z</time></trkpt><trkpt lat="37.10779121303666" lon="13.923704297273602"><ele>64.75</ele><time>2026-04-12T09:34:13.005Z</time></trkpt><trkpt lat="37.10788376645759" lon="13.923599759464405"><ele>66.0</ele><time>2026-04-12T09:34:14.005Z</time></trkpt><trkpt lat="37.10796938756948" lon="13.92348488226329"><ele>65.75</ele><time>2026-04-12T09:34:15.005Z</time></trkpt><trkpt lat="37.108071952945224" lon="13.92337426097071"><ele>65.5</ele><time>2026-04-12T09:34:16.005Z</time></trkpt><trkpt lat="37.10817309087939" lon="13.923232443061558"><ele>65.25</ele><time>2026-04-12T09:34:17.005Z</time></trkpt><trkpt lat="37.1082626307349" lon="13.923067597456065"><ele>65.0</ele><time>2026-04-12T09:34:18.005Z</time></trkpt><trkpt lat="37.108346564429944" lon="13.92288524047983"><ele>65.0</ele><time>2026-04-12T09:34:19.005Z</time></trkpt><trkpt lat="37.10841932735059" lon="13.922700434008574"><ele>65.0</ele><time>2026-04-12T09:34:20.005Z</time></trkpt><trkpt lat="37.10848887699647" lon="13.922521504667527"><ele>65.0</ele><time>2026-04-12T09:34:21.005Z</time></trkpt><trkpt lat="37.108552688589114" lon="13.922364397121342"><ele>64.5</ele><time>2026-04-12T09:34:22.005Z</time></trkpt><trkpt lat="37.10861171598189" lon="13.922218594701654"><ele>64.0</ele><time>2026-04-12T09:34:23.005Z</time></trkpt><trkpt lat="37.10866447385307" lon="13.922073601884986"><ele>63.5</ele><time>2026-04-12T09:34:24.005Z</time></trkpt><trkpt lat="37.10872773765206" lon="13.921928233390426"><ele>63.0</ele><time>2026-04-12T09:34:25.005Z</time></trkpt><trkpt lat="37.1087548550828" lon="13.921764019162731"><ele>64.0</ele><time>2026-04-12T09:34:26.005Z</time></trkpt><trkpt lat="37.108806511783655" lon="13.92159402064803"><ele>65.0</ele><time>2026-04-12T09:34:27.005Z</time></trkpt><trkpt lat="37.108843389112266" lon="13.92143308849466"><ele>66.0</ele><time>2026-04-12T09:34:28.005Z</time></trkpt><trkpt lat="37.10888370830595" lon="13.921285495347389"><ele>67.0</ele><time>2026-04-12T09:34:29.005Z</time></trkpt><trkpt lat="37.10890607942084" lon="13.921148179130418"><ele>67.0</ele><time>2026-04-12T09:34:30.005Z</time></trkpt><trkpt lat="37.10891635545614" lon="13.92100394340489"><ele>67.0</ele><time>2026-04-12T09:34:31.005Z</time></trkpt><trkpt lat="37.10890114053868" lon="13.920851078103832"><ele>67.0</ele><time>2026-04-12T09:34:32.006Z</time></trkpt><trkpt lat="37.1088551658858" lon="13.920693467017522"><ele>67.0</ele><time>2026-04-12T09:34:33.006Z</time></trkpt><trkpt lat="37.10878230002078" lon="13.92053704577892"><ele>66.33333333333333</ele><time>2026-04-12T09:34:34.006Z</time></trkpt><trkpt lat="37.108688186022555" lon="13.92038288422334"><ele>65.66666666666667</ele><time>2026-04-12T09:34:35.006Z</time></trkpt><trkpt lat="37.10858533468853" lon="13.920234972948686"><ele>65.0</ele><time>2026-04-12T09:34:36.006Z</time></trkpt><trkpt lat="37.10847570900746" lon="13.920102854224934"><ele>62.66666666666667</ele><time>2026-04-12T09:34:37.006Z</time></trkpt><trkpt lat="37.10836219067858" lon="13.919968075952601"><ele>60.33333333333333</ele><time>2026-04-12T09:34:38.006Z</time></trkpt><trkpt lat="37.108270539033875" lon="13.919814927661658"><ele>58.0</ele><time>2026-04-12T09:34:39.006Z</time></trkpt><trkpt lat="37.108192888458234" lon="13.919651023186342"><ele>62.0</ele><time>2026-04-12T09:34:40.006Z</time></trkpt><trkpt lat="37.108128311118755" lon="13.919474015270838"><ele>66.0</ele><time>2026-04-12T09:34:41.006Z</time></trkpt><trkpt lat="37.10808464272626" lon="13.919282428565161"><ele>70.0</ele><time>2026-04-12T09:34:42.006Z</time></trkpt><trkpt lat="37.10805721744863" lon="13.919082242570497"><ele>70.0</ele><time>2026-04-12T09:34:43.006Z</time></trkpt><trkpt lat="37.10805326096718" lon="13.918887296995138"><ele>70.0</ele><time>2026-04-12T09:34:44.006Z</time></trkpt><trkpt lat="37.10806791995063" lon="13.918701780556328"><ele>70.0</ele><time>2026-04-12T09:34:45.006Z</time></trkpt><trkpt lat="37.10806288683074" lon="13.918540487860572"><ele>70.0</ele><time>2026-04-12T09:34:46.006Z</time></trkpt><trkpt lat="37.10802700979889" lon="13.918404940986777"><ele>69.75</ele><time>2026-04-12T09:34:47.006Z</time></trkpt><trkpt lat="37.10796632798136" lon="13.91828547804639"><ele>69.5</ele><time>2026-04-12T09:34:48.006Z</time></trkpt><trkpt lat="37.10790026293956" lon="13.918168506412648"><ele>69.25</ele><time>2026-04-12T09:34:49.006Z</time></trkpt><trkpt lat="37.107854283677135" lon="13.91802389457683"><ele>69.0</ele><time>2026-04-12T09:34:50.006Z</time></trkpt><trkpt lat="37.10783820320505" lon="13.917873496082048"><ele>69.0</ele><time>2026-04-12T09:34:51.006Z</time></trkpt><trkpt lat="37.1078222369359" lon="13.917747516118864"><ele>69.0</ele><time>2026-04-12T09:34:52.006Z</time></trkpt><trkpt lat="37.107792298560824" lon="13.917631275553083"><ele>69.0</ele><time>2026-04-12T09:34:53.006Z</time></trkpt><trkpt lat="37.107692324718684" lon="13.917552034457225"><ele>69.0</ele><time>2026-04-12T09:34:54.006Z</time></trkpt><trkpt lat="37.107578870211086" lon="13.9174820186147"><ele>69.0</ele><time>2026-04-12T09:34:55.006Z</time></trkpt><trkpt lat="37.10745953252199" lon="13.917405443600398"><ele>73.5</ele><time>2026-04-12T09:34:56.006Z</time></trkpt><trkpt lat="37.10734447175004" lon="13.917317580071842"><ele>78.0</ele><time>2026-04-12T09:34:57.006Z</time></trkpt><trkpt lat="37.10721670591644" lon="13.917234768226454"><ele>82.5</ele><time>2026-04-12T09:34:58.006Z</time></trkpt><trkpt lat="37.10707335308632" lon="13.917136369632903"><ele>87.0</ele><time>2026-04-12T09:34:59.006Z</time></trkpt><trkpt lat="37.10692768253383" lon="13.91703726834885"><ele>87.0</ele><time>2026-04-12T09:35:00.006Z</time></trkpt><trkpt lat="37.106774816293324" lon="13.916937965194501"><ele>87.0</ele><time>2026-04-12T09:35:01.006Z</time></trkpt><trkpt lat="37.10663188912157" lon="13.916840940404018"><ele>87.0</ele><time>2026-04-12T09:35:02.006Z</time></trkpt><trkpt lat="37.10650472077241" lon="13.916756130105087"><ele>88.19999999999999</ele><time>2026-04-12T09:35:03.006Z</time></trkpt><trkpt lat="37.10639619600326" lon="13.916681240688488"><ele>89.4</ele><time>2026-04-12T09:35:04.006Z</time></trkpt><trkpt lat="37.106302554350606" lon="13.916605451059954"><ele>90.6</ele><time>2026-04-12T09:35:05.006Z</time></trkpt><trkpt lat="37.10623183085636" lon="13.916515160224659"><ele>91.80000000000001</ele><time>2026-04-12T09:35:06.006Z</time></trkpt><trkpt lat="37.10621440107355" lon="13.916385574431406"><ele>93.0</ele><time>2026-04-12T09:35:07.006Z</time></trkpt><trkpt lat="37.10621517740161" lon="13.916262358570298"><ele>93.0</ele><time>2026-04-12T09:35:08.006Z</time></trkpt><trkpt lat="37.10622437594731" lon="13.916124956219345"><ele>93.0</ele><time>2026-04-12T09:35:09.006Z</time></trkpt><trkpt lat="37.10622594357325" lon="13.915969698296594"><ele>93.0</ele><time>2026-04-12T09:35:10.006Z</time></trkpt><trkpt lat="37.1062264267654" lon="13.915816533256685"><ele>93.0</ele><time>2026-04-12T09:35:11.006Z</time></trkpt><trkpt lat="37.10623267016746" lon="13.91565318854175"><ele>94.0</ele><time>2026-04-12T09:35:12.006Z</time></trkpt><trkpt lat="37.106237243021326" lon="13.915484064265643"><ele>95.0</ele><time>2026-04-12T09:35:13.006Z</time></trkpt><trkpt lat="37.106234225655655" lon="13.915315359939655"><ele>96.0</ele><time>2026-04-12T09:35:14.006Z</time></trkpt><trkpt lat="37.10623752162095" lon="13.915140607413253"><ele>97.0</ele><time>2026-04-12T09:35:15.006Z</time></trkpt><trkpt lat="37.106239573695724" lon="13.914983216283511"><ele>98.6</ele><time>2026-04-12T09:35:16.006Z</time></trkpt><trkpt lat="37.106239550975054" lon="13.914842460361134"><ele>100.19999999999999</ele><time>2026-04-12T09:35:17.006Z</time></trkpt><trkpt lat="37.10624601321999" lon="13.914718261020283"><ele>101.8</ele><time>2026-04-12T09:35:18.006Z</time></trkpt><trkpt lat="37.10626399680593" lon="13.914598285648253"><ele>103.4</ele><time>2026-04-12T09:35:19.007Z</time></trkpt><trkpt lat="37.10630584065685" lon="13.91448143361959"><ele>105.0</ele><time>2026-04-12T09:35:20.007Z</time></trkpt><trkpt lat="37.10638179767603" lon="13.914374083448145"><ele>105.0</ele><time>2026-04-12T09:35:21.007Z</time></trkpt><trkpt lat="37.106486300651106" lon="13.914277756090028"><ele>105.0</ele><time>2026-04-12T09:35:22.007Z</time></trkpt><trkpt lat="37.10659469299814" lon="13.914186808254057"><ele>105.0</ele><time>2026-04-12T09:35:23.007Z</time></trkpt><trkpt lat="37.106697110267774" lon="13.914092850936216"><ele>105.0</ele><time>2026-04-12T09:35:24.007Z</time></trkpt><trkpt lat="37.10678281511344" lon="13.91397621128"><ele>104.5</ele><time>2026-04-12T09:35:25.007Z</time></trkpt><trkpt lat="37.106843877748304" lon="13.913824883567937"><ele>104.0</ele><time>2026-04-12T09:35:26.007Z</time></trkpt><trkpt lat="37.10689412751388" lon="13.913659660984974"><ele>103.5</ele><time>2026-04-12T09:35:27.007Z</time></trkpt><trkpt lat="37.10693613551696" lon="13.913484314867858"><ele>103.0</ele><time>2026-04-12T09:35:28.007Z</time></trkpt><trkpt lat="37.10697960642178" lon="13.91330769486307"><ele>103.0</ele><time>2026-04-12T09:35:29.007Z</time></trkpt><trkpt lat="37.10701499904742" lon="13.913127933178323"><ele>103.0</ele><time>2026-04-12T09:35:30.007Z</time></trkpt><trkpt lat="37.107038405293004" lon="13.912951542140263"><ele>103.0</ele><time>2026-04-12T09:35:31.007Z</time></trkpt><trkpt lat="37.10706064720079" lon="13.912790572640196"><ele>103.0</ele><time>2026-04-12T09:35:32.007Z</time></trkpt><trkpt lat="37.10707582241154" lon="13.91263990616736"><ele>103.33333333333334</ele><time>2026-04-12T09:35:33.007Z</time></trkpt><trkpt lat="37.10707416257171" lon="13.912513652144044"><ele>103.66666666666667</ele><time>2026-04-12T09:35:34.007Z</time></trkpt><trkpt lat="37.107052986774384" lon="13.912404254389575"><ele>104.0</ele><time>2026-04-12T09:35:35.007Z</time></trkpt><trkpt lat="37.10701217727078" lon="13.912327541132319"><ele>104.33333333333334</ele><time>2026-04-12T09:35:36.007Z</time></trkpt><trkpt lat="37.106945926554936" lon="13.912279534860224"><ele>104.66666666666667</ele><time>2026-04-12T09:35:37.007Z</time></trkpt><trkpt lat="37.10687409807143" lon="13.912257713048412"><ele>105.0</ele><time>2026-04-12T09:35:38.007Z</time></trkpt><trkpt lat="37.10679839668342" lon="13.91227719497963"><ele>105.0</ele><time>2026-04-12T09:35:39.007Z</time></trkpt><trkpt lat="37.10673746840254" lon="13.912323233421915"><ele>105.0</ele><time>2026-04-12T09:35:40.007Z</time></trkpt><trkpt lat="37.10667138590099" lon="13.912396525236723"><ele>105.0</ele><time>2026-04-12T09:35:41.007Z</time></trkpt><trkpt lat="37.10664856827971" lon="13.912538708618507"><ele>105.0</ele><time>2026-04-12T09:35:42.007Z</time></trkpt><trkpt lat="37.10659270247831" lon="13.912706363127448"><ele>105.0</ele><time>2026-04-12T09:35:43.007Z</time></trkpt><trkpt lat="37.10654924577334" lon="13.91288975139294"><ele>107.0</ele><time>2026-04-12T09:35:44.007Z</time></trkpt><trkpt lat="37.10652432615686" lon="13.913063502456634"><ele>109.0</ele><time>2026-04-12T09:35:45.007Z</time></trkpt><trkpt lat="37.106479636504766" lon="13.913214335738939"><ele>111.0</ele><time>2026-04-12T09:35:46.007Z</time></trkpt><trkpt lat="37.10643911274191" lon="13.913358042891478"><ele>113.0</ele><time>2026-04-12T09:35:47.007Z</time></trkpt><trkpt lat="37.10637859126923" lon="13.913488331851092"><ele>113.0</ele><time>2026-04-12T09:35:48.007Z</time></trkpt><trkpt lat="37.106280902000805" lon="13.91358600545574"><ele>113.0</ele><time>2026-04-12T09:35:49.007Z</time></trkpt><trkpt lat="37.10617502367867" lon="13.913678325628828"><ele>113.0</ele><time>2026-04-12T09:35:50.007Z</time></trkpt><trkpt lat="37.106076142598454" lon="13.913774690690175"><ele>113.0</ele><time>2026-04-12T09:35:51.007Z</time></trkpt><trkpt lat="37.105969818772714" lon="13.91386310842287"><ele>113.0</ele><time>2026-04-12T09:35:52.007Z</time></trkpt><trkpt lat="37.10586531723775" lon="13.913952834014456"><ele>113.0</ele><time>2026-04-12T09:35:53.007Z</time></trkpt><trkpt lat="37.10576648925733" lon="13.914048101883099"><ele>113.0</ele><time>2026-04-12T09:35:54.007Z</time></trkpt><trkpt lat="37.105679030020845" lon="13.914135487096656"><ele>113.0</ele><time>2026-04-12T09:35:55.007Z</time></trkpt><trkpt lat="37.10560385268584" lon="13.914208952375846"><ele>115.0</ele><time>2026-04-12T09:35:56.007Z</time></trkpt><trkpt lat="37.105530120735885" lon="13.914262136907736"><ele>117.00000000000001</ele><time>2026-04-12T09:35:57.007Z</time></trkpt><trkpt lat="37.105443028979" lon="13.914298719107713"><ele>119.00000000000001</ele><time>2026-04-12T09:35:58.007Z</time></trkpt><trkpt lat="37.1053436699394" lon="13.914300067397582"><ele>121.0</ele><time>2026-04-12T09:35:59.007Z</time></trkpt><trkpt lat="37.105247270665615" lon="13.914253714042975"><ele>123.0</ele><time>2026-04-12T09:36:00.007Z</time></trkpt><trkpt lat="37.10515920157113" lon="13.914168281822743"><ele>125.0</ele><time>2026-04-12T09:36:01.007Z</time></trkpt><trkpt lat="37.10508670294505" lon="13.914056427824686"><ele>127.0</ele><time>2026-04-12T09:36:02.007Z</time></trkpt><trkpt lat="37.1050680447143" lon="13.913908384475244"><ele>129.0</ele><time>2026-04-12T09:36:03.007Z</time></trkpt><trkpt lat="37.10502034659488" lon="13.91374650399894"><ele>131.0</ele><time>2026-04-12T09:36:04.007Z</time></trkpt><trkpt lat="37.10497204386798" lon="13.91358093299294"><ele>131.0</ele><time>2026-04-12T09:36:05.007Z</time></trkpt><trkpt lat="37.10492512992954" lon="13.913416374786884"><ele>131.0</ele><time>2026-04-12T09:36:06.007Z</time></trkpt><trkpt lat="37.10487776532709" lon="13.913234503452786"><ele>131.0</ele><time>2026-04-12T09:36:07.008Z</time></trkpt><trkpt lat="37.10483975664739" lon="13.91302705144142"><ele>134.33333333333331</ele><time>2026-04-12T09:36:08.008Z</time></trkpt><trkpt lat="37.10481189270701" lon="13.912812327646376"><ele>137.66666666666666</ele><time>2026-04-12T09:36:09.008Z</time></trkpt><trkpt lat="37.10479210172888" lon="13.912617060579448"><ele>141.0</ele><time>2026-04-12T09:36:10.008Z</time></trkpt><trkpt lat="37.10477711014255" lon="13.912445191058497"><ele>141.0</ele><time>2026-04-12T09:36:11.008Z</time></trkpt><trkpt lat="37.10476394846901" lon="13.912281248464808"><ele>141.0</ele><time>2026-04-12T09:36:12.008Z</time></trkpt><trkpt lat="37.10475559947063" lon="13.912139066589907"><ele>141.0</ele><time>2026-04-12T09:36:13.008Z</time></trkpt><trkpt lat="37.10475159412992" lon="13.912039710245141"><ele>141.0</ele><time>2026-04-12T09:36:14.008Z</time></trkpt><trkpt lat="37.10474736212287" lon="13.911920899895135"><ele>141.0</ele><time>2026-04-12T09:36:16.008Z</time></trkpt><trkpt lat="37.10459510173435" lon="13.911865189249253"><ele>141.0</ele><time>2026-04-12T09:36:19.008Z</time></trkpt><trkpt lat="37.10452640790245" lon="13.911921791497704"><ele>141.0</ele><time>2026-04-12T09:36:20.008Z</time></trkpt><trkpt lat="37.10445157165768" lon="13.911974756681113"><ele>141.0</ele><time>2026-04-12T09:36:21.008Z</time></trkpt><trkpt lat="37.10435624895133" lon="13.912047029385237"><ele>141.0</ele><time>2026-04-12T09:36:22.008Z</time></trkpt><trkpt lat="37.10426065177954" lon="13.912137470118319"><ele>141.0</ele><time>2026-04-12T09:36:23.008Z</time></trkpt><trkpt lat="37.10417948077321" lon="13.912245041539844"><ele>141.0</ele><time>2026-04-12T09:36:24.008Z</time></trkpt><trkpt lat="37.10410163569272" lon="13.912361499100465"><ele>141.0</ele><time>2026-04-12T09:36:25.008Z</time></trkpt><trkpt lat="37.10400837636282" lon="13.912496210085994"><ele>141.0</ele><time>2026-04-12T09:36:26.008Z</time></trkpt><trkpt lat="37.1039102167067" lon="13.91265528469142"><ele>141.0</ele><time>2026-04-12T09:36:27.008Z</time></trkpt><trkpt lat="37.10380005866525" lon="13.912802097897256"><ele>142.25</ele><time>2026-04-12T09:36:28.008Z</time></trkpt><trkpt lat="37.103706406386706" lon="13.912937665220566"><ele>143.5</ele><time>2026-04-12T09:36:29.008Z</time></trkpt><trkpt lat="37.10361609830131" lon="13.913047132050098"><ele>144.75</ele><time>2026-04-12T09:36:30.008Z</time></trkpt><trkpt lat="37.10353018792958" lon="13.913139527258464"><ele>146.0</ele><time>2026-04-12T09:36:31.008Z</time></trkpt><trkpt lat="37.10346653902158" lon="13.913236329196488"><ele>146.0</ele><time>2026-04-12T09:36:32.008Z</time></trkpt><trkpt lat="37.10341676519054" lon="13.913339379073467"><ele>146.0</ele><time>2026-04-12T09:36:33.008Z</time></trkpt><trkpt lat="37.103378146297324" lon="13.913456265778679"><ele>146.0</ele><time>2026-04-12T09:36:34.008Z</time></trkpt><trkpt lat="37.10333697753641" lon="13.913558609266518"><ele>146.0</ele><time>2026-04-12T09:36:35.008Z</time></trkpt><trkpt lat="37.10331498474817" lon="13.913662865596303"><ele>146.0</ele><time>2026-04-12T09:36:36.008Z</time></trkpt><trkpt lat="37.10329274977006" lon="13.913753910140944"><ele>145.57142857142856</ele><time>2026-04-12T09:36:37.008Z</time></trkpt><trkpt lat="37.103264715858224" lon="13.913836304015915"><ele>145.14285714285714</ele><time>2026-04-12T09:36:38.008Z</time></trkpt><trkpt lat="37.10323229340644" lon="13.913916317135186"><ele>144.71428571428572</ele><time>2026-04-12T09:36:39.008Z</time></trkpt><trkpt lat="37.103162544138044" lon="13.913949436124234"><ele>144.28571428571428</ele><time>2026-04-12T09:36:40.008Z</time></trkpt><trkpt lat="37.10309131843824" lon="13.91392838784514"><ele>143.85714285714286</ele><time>2026-04-12T09:36:41.008Z</time></trkpt><trkpt lat="37.10302440782403" lon="13.913940184726716"><ele>143.42857142857142</ele><time>2026-04-12T09:36:42.008Z</time></trkpt><trkpt lat="37.10295167211332" lon="13.913929633068934"><ele>143.0</ele><time>2026-04-12T09:36:43.008Z</time></trkpt><trkpt lat="37.102879996925715" lon="13.913906150717535"><ele>140.16666666666666</ele><time>2026-04-12T09:36:44.008Z</time></trkpt><trkpt lat="37.10281463340071" lon="13.913863291543802"><ele>137.33333333333331</ele><time>2026-04-12T09:36:45.008Z</time></trkpt><trkpt lat="37.102757923625674" lon="13.913802482468386"><ele>134.5</ele><time>2026-04-12T09:36:46.008Z</time></trkpt><trkpt lat="37.10270673753813" lon="13.913743577667281"><ele>131.66666666666666</ele><time>2026-04-12T09:36:47.008Z</time></trkpt><trkpt lat="37.10265745059936" lon="13.913692851649056"><ele>128.83333333333334</ele><time>2026-04-12T09:36:48.008Z</time></trkpt><trkpt lat="37.10253590145021" lon="13.913644307170175"><ele>126.0</ele><time>2026-04-12T09:36:50.008Z</time></trkpt><trkpt lat="37.10245739191976" lon="13.91365828678742"><ele>126.0</ele><time>2026-04-12T09:36:51.008Z</time></trkpt><trkpt lat="37.10238194824248" lon="13.913699694895294"><ele>126.0</ele><time>2026-04-12T09:36:52.008Z</time></trkpt><trkpt lat="37.10232272598099" lon="13.913773981736881"><ele>126.0</ele><time>2026-04-12T09:36:53.008Z</time></trkpt><trkpt lat="37.10230439829327" lon="13.913892397108208"><ele>126.0</ele><time>2026-04-12T09:36:54.008Z</time></trkpt><trkpt lat="37.10234073480883" lon="13.914031620735274"><ele>126.0</ele><time>2026-04-12T09:36:55.008Z</time></trkpt><trkpt lat="37.10243160576375" lon="13.914169250717343"><ele>121.0</ele><time>2026-04-12T09:36:56.008Z</time></trkpt><trkpt lat="37.10253169872839" lon="13.914282154042994"><ele>116.0</ele><time>2026-04-12T09:36:57.008Z</time></trkpt><trkpt lat="37.10263381410242" lon="13.914416152758685"><ele>111.0</ele><time>2026-04-12T09:36:58.008Z</time></trkpt><trkpt lat="37.10276106682055" lon="13.914570000263712"><ele>111.0</ele><time>2026-04-12T09:36:59.008Z</time></trkpt><trkpt lat="37.102890564354745" lon="13.914707189144384"><ele>111.0</ele><time>2026-04-12T09:37:00.008Z</time></trkpt><trkpt lat="37.10298368485564" lon="13.914853137356316"><ele>111.0</ele><time>2026-04-12T09:37:01.008Z</time></trkpt><trkpt lat="37.103069401606184" lon="13.914967687941799"><ele>111.0</ele><time>2026-04-12T09:37:02.009Z</time></trkpt><trkpt lat="37.103161900734044" lon="13.915106157992152"><ele>112.25</ele><time>2026-04-12T09:37:03.009Z</time></trkpt><trkpt lat="37.10326170778619" lon="13.915258019376685"><ele>113.5</ele><time>2026-04-12T09:37:04.009Z</time></trkpt><trkpt lat="37.1033474749787" lon="13.915418183909305"><ele>114.75</ele><time>2026-04-12T09:37:05.009Z</time></trkpt><trkpt lat="37.1034042623029" lon="13.915541209883441"><ele>116.0</ele><time>2026-04-12T09:37:06.009Z</time></trkpt><trkpt lat="37.1034605322053" lon="13.91567597705273"><ele>116.0</ele><time>2026-04-12T09:37:07.009Z</time></trkpt><trkpt lat="37.10351566629853" lon="13.91581899378714"><ele>116.0</ele><time>2026-04-12T09:37:08.009Z</time></trkpt><trkpt lat="37.103561230738116" lon="13.915962809007201"><ele>116.0</ele><time>2026-04-12T09:37:09.009Z</time></trkpt><trkpt lat="37.10360214373897" lon="13.916107868719264"><ele>116.0</ele><time>2026-04-12T09:37:10.009Z</time></trkpt><trkpt lat="37.10364254026248" lon="13.916264800430824"><ele>114.19999999999999</ele><time>2026-04-12T09:37:11.009Z</time></trkpt><trkpt lat="37.103700472396206" lon="13.916399862590833"><ele>112.39999999999999</ele><time>2026-04-12T09:37:12.009Z</time></trkpt><trkpt lat="37.10377171968024" lon="13.916492938095564"><ele>110.6</ele><time>2026-04-12T09:37:13.009Z</time></trkpt><trkpt lat="37.10384545191679" lon="13.916576386005552"><ele>108.8</ele><time>2026-04-12T09:37:14.009Z</time></trkpt><trkpt lat="37.10394215994386" lon="13.916649906827821"><ele>107.0</ele><time>2026-04-12T09:37:15.009Z</time></trkpt><trkpt lat="37.1040370859829" lon="13.916739956415988"><ele>112.0</ele><time>2026-04-12T09:37:16.009Z</time></trkpt><trkpt lat="37.10410796642673" lon="13.916881717822276"><ele>117.0</ele><time>2026-04-12T09:37:17.009Z</time></trkpt><trkpt lat="37.10420044210379" lon="13.917046225139632"><ele>122.0</ele><time>2026-04-12T09:37:18.009Z</time></trkpt><trkpt lat="37.10426446909659" lon="13.917227782797074"><ele>122.0</ele><time>2026-04-12T09:37:19.009Z</time></trkpt><trkpt lat="37.1042919795685" lon="13.917392717365153"><ele>122.0</ele><time>2026-04-12T09:37:20.009Z</time></trkpt><trkpt lat="37.104285752688895" lon="13.917574836908955"><ele>122.0</ele><time>2026-04-12T09:37:21.009Z</time></trkpt><trkpt lat="37.10426884284465" lon="13.917772007895774"><ele>122.0</ele><time>2026-04-12T09:37:22.009Z</time></trkpt><trkpt lat="37.10425678597985" lon="13.917958006325557"><ele>122.5</ele><time>2026-04-12T09:37:23.009Z</time></trkpt><trkpt lat="37.10426106709214" lon="13.918129328868497"><ele>123.0</ele><time>2026-04-12T09:37:24.009Z</time></trkpt><trkpt lat="37.10429651681499" lon="13.918309749302995"><ele>123.5</ele><time>2026-04-12T09:37:25.009Z</time></trkpt><trkpt lat="37.10434428179262" lon="13.91845770791103"><ele>124.0</ele><time>2026-04-12T09:37:26.009Z</time></trkpt><trkpt lat="37.104378691190746" lon="13.918566299578266"><ele>127.0</ele><time>2026-04-12T09:37:27.009Z</time></trkpt><trkpt lat="37.104341062601236" lon="13.918667285339858"><ele>130.0</ele><time>2026-04-12T09:37:28.009Z</time></trkpt><trkpt lat="37.10430135575481" lon="13.918810276652765"><ele>133.0</ele><time>2026-04-12T09:37:29.009Z</time></trkpt><trkpt lat="37.10424594171776" lon="13.918924335461545"><ele>136.0</ele><time>2026-04-12T09:37:30.009Z</time></trkpt><trkpt lat="37.10419387214138" lon="13.919046106684704"><ele>139.0</ele><time>2026-04-12T09:37:31.009Z</time></trkpt><trkpt lat="37.10414813113838" lon="13.919153387494784"><ele>139.66666666666669</ele><time>2026-04-12T09:37:32.009Z</time></trkpt><trkpt lat="37.10409672653187" lon="13.919244970562678"><ele>140.33333333333334</ele><time>2026-04-12T09:37:33.009Z</time></trkpt><trkpt lat="37.10404362307772" lon="13.919293572164515"><ele>141.0</ele><time>2026-04-12T09:37:34.009Z</time></trkpt><trkpt lat="37.10400435539238" lon="13.919356017532795"><ele>141.66666666666666</ele><time>2026-04-12T09:37:36.009Z</time></trkpt><trkpt lat="37.10399863734039" lon="13.919489934498056"><ele>142.33333333333331</ele><time>2026-04-12T09:37:58.01Z</time></trkpt><trkpt lat="37.10397917159305" lon="13.91959479783717"><ele>143.0</ele><time>2026-04-12T09:37:59.01Z</time></trkpt><trkpt lat="37.10397345648769" lon="13.91967621017267"><ele>139.6</ele><time>2026-04-12T09:38:00.01Z</time></trkpt><trkpt lat="37.103964857595834" lon="13.919827458203093"><ele>136.20000000000002</ele><time>2026-04-12T09:38:02.01Z</time></trkpt><trkpt lat="37.10396636060973" lon="13.919911402914863"><ele>132.8</ele><time>2026-04-12T09:38:03.01Z</time></trkpt><trkpt lat="37.10397563692953" lon="13.920015727945655"><ele>129.4</ele><time>2026-04-12T09:38:04.01Z</time></trkpt><trkpt lat="37.10398552605253" lon="13.920099071052823"><ele>126.0</ele><time>2026-04-12T09:38:05.01Z</time></trkpt><trkpt lat="37.10399754774195" lon="13.920244011872159"><ele>125.6</ele><time>2026-04-12T09:38:07.01Z</time></trkpt><trkpt lat="37.10403202983654" lon="13.920388822508698"><ele>125.19999999999999</ele><time>2026-04-12T09:38:09.01Z</time></trkpt><trkpt lat="37.10401271912274" lon="13.92054633719003"><ele>124.80000000000001</ele><time>2026-04-12T09:38:11.01Z</time></trkpt><trkpt lat="37.10399879490634" lon="13.920684069521723"><ele>124.4</ele><time>2026-04-12T09:38:13.01Z</time></trkpt><trkpt lat="37.10397961630547" lon="13.920769445104096"><ele>124.0</ele><time>2026-04-12T09:38:15.01Z</time></trkpt><trkpt lat="37.10393916222634" lon="13.920887174822782"><ele>124.00000000000001</ele><time>2026-04-12T09:38:18.01Z</time></trkpt><trkpt lat="37.10391463840153" lon="13.920961551227556"><ele>124.0</ele><time>2026-04-12T09:38:19.01Z</time></trkpt><trkpt lat="37.10388803691369" lon="13.921035780629579"><ele>124.0</ele><time>2026-04-12T09:38:20.01Z</time></trkpt><trkpt lat="37.1038629907998" lon="13.92112062135961"><ele>124.0</ele><time>2026-04-12T09:38:21.01Z</time></trkpt><trkpt lat="37.10384106701023" lon="13.921206421676851"><ele>124.00000000000001</ele><time>2026-04-12T09:38:22.01Z</time></trkpt><trkpt lat="37.10381583465569" lon="13.921324750622357"><ele>124.0</ele><time>2026-04-12T09:38:24.01Z</time></trkpt><trkpt lat="37.10381402076257" lon="13.921424791430946"><ele>124.00000000000001</ele><time>2026-04-12T09:38:26.01Z</time></trkpt><trkpt lat="37.10381427695558" lon="13.921504330200094"><ele>124.0</ele><time>2026-04-12T09:38:27.01Z</time></trkpt><trkpt lat="37.103805351353" lon="13.921608667486636"><ele>124.0</ele><time>2026-04-12T09:38:28.01Z</time></trkpt><trkpt lat="37.10379885267744" lon="13.92171533224144"><ele>124.0</ele><time>2026-04-12T09:38:29.01Z</time></trkpt><trkpt lat="37.1037780989691" lon="13.921841460826784"><ele>124.00000000000001</ele><time>2026-04-12T09:38:30.01Z</time></trkpt><trkpt lat="37.10374437339613" lon="13.921963706942481"><ele>124.0</ele><time>2026-04-12T09:38:31.01Z</time></trkpt><trkpt lat="37.10368270487054" lon="13.922070369554701"><ele>124.33333333333334</ele><time>2026-04-12T09:38:32.01Z</time></trkpt><trkpt lat="37.103660371810555" lon="13.922190204413004"><ele>124.66666666666667</ele><time>2026-04-12T09:38:33.01Z</time></trkpt><trkpt lat="37.10362923266926" lon="13.922297026194915"><ele>125.0</ele><time>2026-04-12T09:38:34.01Z</time></trkpt><trkpt lat="37.103607722351214" lon="13.922409717796707"><ele>125.33333333333334</ele><time>2026-04-12T09:38:35.01Z</time></trkpt><trkpt lat="37.103588976146774" lon="13.922503689402724"><ele>125.66666666666667</ele><time>2026-04-12T09:38:36.01Z</time></trkpt><trkpt lat="37.103570068073786" lon="13.922606202864907"><ele>126.0</ele><time>2026-04-12T09:38:37.011Z</time></trkpt><trkpt lat="37.10354672727795" lon="13.922708817178863"><ele>124.8</ele><time>2026-04-12T09:38:38.011Z</time></trkpt><trkpt lat="37.10352742115582" lon="13.922817431731968"><ele>123.6</ele><time>2026-04-12T09:38:39.011Z</time></trkpt><trkpt lat="37.10351141102862" lon="13.92292947359308"><ele>122.4</ele><time>2026-04-12T09:38:40.011Z</time></trkpt><trkpt lat="37.103509111652244" lon="13.923027100632536"><ele>121.2</ele><time>2026-04-12T09:38:41.011Z</time></trkpt><trkpt lat="37.10351381440291" lon="13.923114331895073"><ele>120.0</ele><time>2026-04-12T09:38:42.011Z</time></trkpt><trkpt lat="37.10355668854476" lon="13.92325803056607"><ele>120.0</ele><time>2026-04-12T09:38:44.011Z</time></trkpt><trkpt lat="37.10360556750131" lon="13.923330269672476"><ele>120.0</ele><time>2026-04-12T09:38:45.011Z</time></trkpt><trkpt lat="37.103639904313006" lon="13.92341009627889"><ele>120.0</ele><time>2026-04-12T09:38:46.011Z</time></trkpt><trkpt lat="37.10367196285427" lon="13.923482386377238"><ele>120.0</ele><time>2026-04-12T09:38:47.011Z</time></trkpt><trkpt lat="37.10369889771052" lon="13.923554284662236"><ele>120.0</ele><time>2026-04-12T09:38:48.011Z</time></trkpt><trkpt lat="37.10371869680401" lon="13.92363087858306"><ele>120.0</ele><time>2026-04-12T09:38:49.011Z</time></trkpt><trkpt lat="37.103720272150994" lon="13.92378926363396"><ele>118.83333333333333</ele><time>2026-04-12T09:38:51.011Z</time></trkpt><trkpt lat="37.103652627739365" lon="13.923922544543716"><ele>117.66666666666666</ele><time>2026-04-12T09:38:53.011Z</time></trkpt><trkpt lat="37.10360271474193" lon="13.923992916875408"><ele>116.5</ele><time>2026-04-12T09:38:54.011Z</time></trkpt><trkpt lat="37.103560827571535" lon="13.924065664230975"><ele>115.33333333333333</ele><time>2026-04-12T09:38:55.011Z</time></trkpt><trkpt lat="37.10352527253148" lon="13.924131109979642"><ele>114.16666666666666</ele><time>2026-04-12T09:38:56.011Z</time></trkpt><trkpt lat="37.103458578517866" lon="13.924235259761813"><ele>113.0</ele><time>2026-04-12T09:38:58.011Z</time></trkpt><trkpt lat="37.1034192573878" lon="13.924344412003098"><ele>112.60000000000001</ele><time>2026-04-12T09:39:00.011Z</time></trkpt><trkpt lat="37.10337355465615" lon="13.924400223081864"><ele>112.20000000000002</ele><time>2026-04-12T09:39:02.011Z</time></trkpt><trkpt lat="37.10343616015693" lon="13.924536335303081"><ele>111.8</ele><time>2026-04-12T09:39:04.011Z</time></trkpt><trkpt lat="37.103452853825786" lon="13.924651676398971"><ele>111.4</ele><time>2026-04-12T09:39:06.011Z</time></trkpt><trkpt lat="37.10346650165101" lon="13.924769106046126"><ele>111.0</ele><time>2026-04-12T09:39:08.011Z</time></trkpt><trkpt lat="37.10345204814042" lon="13.924928364680435"><ele>111.0</ele><time>2026-04-12T09:39:10.011Z</time></trkpt><trkpt lat="37.1033920668637" lon="13.925041636442483"><ele>111.0</ele><time>2026-04-12T09:39:12.011Z</time></trkpt><trkpt lat="37.10336049602272" lon="13.925157471436526"><ele>111.0</ele><time>2026-04-12T09:39:14.011Z</time></trkpt><trkpt lat="37.10333198446062" lon="13.925234943171331"><ele>111.0</ele><time>2026-04-12T09:39:15.011Z</time></trkpt><trkpt lat="37.10331039432686" lon="13.925310440212582"><ele>111.0</ele><time>2026-04-12T09:39:16.011Z</time></trkpt><trkpt lat="37.103248717971624" lon="13.925356495637727"><ele>111.0</ele><time>2026-04-12T09:39:17.011Z</time></trkpt><trkpt lat="37.10318200930975" lon="13.925407405653093"><ele>109.5</ele><time>2026-04-12T09:39:18.011Z</time></trkpt><trkpt lat="37.10310343665355" lon="13.925463556401985"><ele>108.0</ele><time>2026-04-12T09:39:19.011Z</time></trkpt><trkpt lat="37.10300385790204" lon="13.925475420412482"><ele>106.5</ele><time>2026-04-12T09:39:20.011Z</time></trkpt><trkpt lat="37.102919739733906" lon="13.92550099393808"><ele>105.0</ele><time>2026-04-12T09:39:21.011Z</time></trkpt><trkpt lat="37.10284307894047" lon="13.925538247564285"><ele>103.5</ele><time>2026-04-12T09:39:22.011Z</time></trkpt><trkpt lat="37.10278311306349" lon="13.925594156638244"><ele>102.0</ele><time>2026-04-12T09:39:23.011Z</time></trkpt><trkpt lat="37.102737039300855" lon="13.925653264861523"><ele>102.0</ele><time>2026-04-12T09:39:24.011Z</time></trkpt><trkpt lat="37.102688724381395" lon="13.925717729878508"><ele>102.0</ele><time>2026-04-12T09:39:25.012Z</time></trkpt><trkpt lat="37.102643862514114" lon="13.925781918184986"><ele>102.0</ele><time>2026-04-12T09:39:26.012Z</time></trkpt><trkpt lat="37.102589350377244" lon="13.92586268770856"><ele>102.0</ele><time>2026-04-12T09:39:27.012Z</time></trkpt><trkpt lat="37.10251966362022" lon="13.925933397056754"><ele>102.0</ele><time>2026-04-12T09:39:28.012Z</time></trkpt><trkpt lat="37.10245400686152" lon="13.926006408544017"><ele>102.0</ele><time>2026-04-12T09:39:29.012Z</time></trkpt><trkpt lat="37.10238448405737" lon="13.926080378948196"><ele>99.6</ele><time>2026-04-12T09:39:30.012Z</time></trkpt><trkpt lat="37.102326575318784" lon="13.926154556177055"><ele>97.19999999999999</ele><time>2026-04-12T09:39:31.012Z</time></trkpt><trkpt lat="37.102277720639464" lon="13.926249857495689"><ele>94.8</ele><time>2026-04-12T09:39:32.012Z</time></trkpt><trkpt lat="37.10220580506008" lon="13.926366488984817"><ele>92.4</ele><time>2026-04-12T09:39:33.012Z</time></trkpt><trkpt lat="37.10214395215285" lon="13.926506721936251"><ele>90.0</ele><time>2026-04-12T09:39:34.012Z</time></trkpt><trkpt lat="37.10207340925596" lon="13.926653624936336"><ele>94.25</ele><time>2026-04-12T09:39:35.012Z</time></trkpt><trkpt lat="37.101985336730735" lon="13.92677673761557"><ele>98.5</ele><time>2026-04-12T09:39:36.012Z</time></trkpt><trkpt lat="37.10191137007279" lon="13.926909743957316"><ele>102.75</ele><time>2026-04-12T09:39:37.012Z</time></trkpt><trkpt lat="37.10182700208331" lon="13.927049326425282"><ele>107.0</ele><time>2026-04-12T09:39:38.012Z</time></trkpt><trkpt lat="37.101721216616326" lon="13.92720376130835"><ele>107.0</ele><time>2026-04-12T09:39:39.012Z</time></trkpt><trkpt lat="37.10159931855903" lon="13.927337557736676"><ele>107.0</ele><time>2026-04-12T09:39:40.012Z</time></trkpt><trkpt lat="37.101484826182066" lon="13.927434005768387"><ele>107.0</ele><time>2026-04-12T09:39:41.012Z</time></trkpt><trkpt lat="37.101393157740965" lon="13.927521952968833"><ele>107.0</ele><time>2026-04-12T09:39:42.012Z</time></trkpt><trkpt lat="37.1012990435642" lon="13.927596053625006"><ele>106.83333333333333</ele><time>2026-04-12T09:39:43.012Z</time></trkpt><trkpt lat="37.101204252171485" lon="13.927656323302564"><ele>106.66666666666666</ele><time>2026-04-12T09:39:44.012Z</time></trkpt><trkpt lat="37.101112244780246" lon="13.927694099096074"><ele>106.5</ele><time>2026-04-12T09:39:45.012Z</time></trkpt><trkpt lat="37.10103718224073" lon="13.927730445535804"><ele>106.33333333333334</ele><time>2026-04-12T09:39:46.012Z</time></trkpt><trkpt lat="37.100978123303456" lon="13.927790411428866"><ele>106.16666666666667</ele><time>2026-04-12T09:39:47.012Z</time></trkpt><trkpt lat="37.1009184799126" lon="13.927856911118605"><ele>106.0</ele><time>2026-04-12T09:39:48.012Z</time></trkpt><trkpt lat="37.10085748916359" lon="13.927930195559629"><ele>106.0</ele><time>2026-04-12T09:39:49.012Z</time></trkpt><trkpt lat="37.10079757870337" lon="13.928008553305203"><ele>106.0</ele><time>2026-04-12T09:39:50.012Z</time></trkpt><trkpt lat="37.10073469951492" lon="13.928078922785126"><ele>106.0</ele><time>2026-04-12T09:39:51.012Z</time></trkpt><trkpt lat="37.10068310959261" lon="13.928128631287395"><ele>106.0</ele><time>2026-04-12T09:39:52.012Z</time></trkpt><trkpt lat="37.10061110344653" lon="13.928245091373377"><ele>106.0</ele><time>2026-04-12T09:39:54.012Z</time></trkpt><trkpt lat="37.100544226129365" lon="13.928353519128843"><ele>104.19999999999999</ele><time>2026-04-12T09:39:56.012Z</time></trkpt><trkpt lat="37.1004386132799" lon="13.928431674266054"><ele>102.39999999999999</ele><time>2026-04-12T09:39:58.012Z</time></trkpt><trkpt lat="37.10032765004905" lon="13.92846599266724"><ele>100.6</ele><time>2026-04-12T09:40:00.012Z</time></trkpt><trkpt lat="37.100276853888616" lon="13.928517301084165"><ele>98.8</ele><time>2026-04-12T09:40:01.012Z</time></trkpt><trkpt lat="37.100169958703425" lon="13.928602333728325"><ele>97.0</ele><time>2026-04-12T09:40:03.012Z</time></trkpt><trkpt lat="37.100117742622196" lon="13.928657873592948"><ele>97.0</ele><time>2026-04-12T09:40:04.012Z</time></trkpt><trkpt lat="37.100067125198294" lon="13.92871959444126"><ele>97.0</ele><time>2026-04-12T09:40:05.012Z</time></trkpt><trkpt lat="37.10002403657977" lon="13.92879685441877"><ele>97.0</ele><time>2026-04-12T09:40:06.012Z</time></trkpt><trkpt lat="37.099983186255386" lon="13.92887521687385"><ele>97.0</ele><time>2026-04-12T09:40:07.012Z</time></trkpt><trkpt lat="37.099943447413864" lon="13.928959574073854"><ele>97.0</ele><time>2026-04-12T09:40:08.012Z</time></trkpt><trkpt lat="37.09990137045213" lon="13.929035467030463"><ele>97.0</ele><time>2026-04-12T09:40:09.012Z</time></trkpt><trkpt lat="37.099858938445905" lon="13.929104806256717"><ele>97.0</ele><time>2026-04-12T09:40:10.012Z</time></trkpt><trkpt lat="37.09979341159463" lon="13.929235204933745"><ele>91.39999999999999</ele><time>2026-04-12T09:40:12.012Z</time></trkpt><trkpt lat="37.09971431498847" lon="13.929345821132554"><ele>85.8</ele><time>2026-04-12T09:40:14.013Z</time></trkpt><trkpt lat="37.09967809805099" lon="13.929411195588"><ele>80.2</ele><time>2026-04-12T09:40:15.013Z</time></trkpt><trkpt lat="37.09969391584282" lon="13.929518703316951"><ele>74.6</ele><time>2026-04-12T09:40:16.013Z</time></trkpt><trkpt lat="37.09965587098207" lon="13.929669366814233"><ele>69.0</ele><time>2026-04-12T09:40:18.013Z</time></trkpt><trkpt lat="37.09963733997568" lon="13.929749845551221"><ele>69.0</ele><time>2026-04-12T09:40:19.013Z</time></trkpt><trkpt lat="37.09962044657185" lon="13.929833492971817"><ele>69.0</ele><time>2026-04-12T09:40:20.013Z</time></trkpt><trkpt lat="37.099599582295134" lon="13.929918645807351"><ele>69.0</ele><time>2026-04-12T09:40:21.013Z</time></trkpt><trkpt lat="37.0995731672727" lon="13.930002796899139"><ele>69.0</ele><time>2026-04-12T09:40:22.013Z</time></trkpt><trkpt lat="37.0995466878749" lon="13.930089768918746"><ele>69.0</ele><time>2026-04-12T09:40:23.013Z</time></trkpt><trkpt lat="37.09952107334911" lon="13.930182034850962"><ele>69.0</ele><time>2026-04-12T09:40:24.013Z</time></trkpt><trkpt lat="37.09950217724137" lon="13.930280048882558"><ele>69.0</ele><time>2026-04-12T09:40:25.013Z</time></trkpt><trkpt lat="37.099492239267725" lon="13.930384071067804"><ele>69.8</ele><time>2026-04-12T09:40:26.013Z</time></trkpt><trkpt lat="37.09948474183857" lon="13.93049868972859"><ele>70.60000000000001</ele><time>2026-04-12T09:40:27.013Z</time></trkpt><trkpt lat="37.0994775440203" lon="13.93062458583836"><ele>71.4</ele><time>2026-04-12T09:40:28.013Z</time></trkpt><trkpt lat="37.0994685483134" lon="13.930761079374388"><ele>72.2</ele><time>2026-04-12T09:40:29.013Z</time></trkpt><trkpt lat="37.099452973015175" lon="13.930895818872546"><ele>73.0</ele><time>2026-04-12T09:40:30.013Z</time></trkpt><trkpt lat="37.099425350414556" lon="13.931019700638167"><ele>75.6</ele><time>2026-04-12T09:40:31.013Z</time></trkpt><trkpt lat="37.09939230084868" lon="13.931145716746032"><ele>78.19999999999999</ele><time>2026-04-12T09:40:32.013Z</time></trkpt><trkpt lat="37.09933866343997" lon="13.931271942635236"><ele>80.8</ele><time>2026-04-12T09:40:33.013Z</time></trkpt><trkpt lat="37.099286984570334" lon="13.931361044655135"><ele>83.39999999999999</ele><time>2026-04-12T09:40:34.013Z</time></trkpt><trkpt lat="37.09923898092603" lon="13.931436257417337"><ele>86.0</ele><time>2026-04-12T09:40:35.013Z</time></trkpt><trkpt lat="37.09920484523713" lon="13.931513174970277"><ele>86.0</ele><time>2026-04-12T09:40:36.013Z</time></trkpt><trkpt lat="37.09917039941185" lon="13.931599801734858"><ele>86.0</ele><time>2026-04-12T09:40:37.013Z</time></trkpt><trkpt lat="37.099130523472944" lon="13.931694135391448"><ele>86.0</ele><time>2026-04-12T09:40:38.013Z</time></trkpt><trkpt lat="37.09908118619934" lon="13.931799973294401"><ele>86.0</ele><time>2026-04-12T09:40:39.013Z</time></trkpt><trkpt lat="37.09904104546674" lon="13.93189631295308"><ele>86.0</ele><time>2026-04-12T09:40:40.013Z</time></trkpt><trkpt lat="37.09899757042782" lon="13.931979362753852"><ele>86.0</ele><time>2026-04-12T09:40:41.013Z</time></trkpt><trkpt lat="37.09895298464043" lon="13.932039519428066"><ele>85.16666666666667</ele><time>2026-04-12T09:40:42.013Z</time></trkpt><trkpt lat="37.09891531646658" lon="13.932116417052859"><ele>84.33333333333334</ele><time>2026-04-12T09:40:43.013Z</time></trkpt><trkpt lat="37.098874001424505" lon="13.932181636219008"><ele>83.5</ele><time>2026-04-12T09:40:44.013Z</time></trkpt><trkpt lat="37.09882667853277" lon="13.932301740268725"><ele>82.66666666666667</ele><time>2026-04-12T09:40:46.013Z</time></trkpt><trkpt lat="37.09884044109871" lon="13.932413037895435"><ele>81.83333333333333</ele><time>2026-04-12T09:40:48.013Z</time></trkpt><trkpt lat="37.098901556425155" lon="13.932502150007366"><ele>81.0</ele><time>2026-04-12T09:40:50.013Z</time></trkpt><trkpt lat="37.09897980342251" lon="13.932569724081793"><ele>81.0</ele><time>2026-04-12T09:40:52.013Z</time></trkpt><trkpt lat="37.09905295393841" lon="13.932642306787558"><ele>81.0</ele><time>2026-04-12T09:40:54.013Z</time></trkpt><trkpt lat="37.099125926809705" lon="13.93271395836008"><ele>81.0</ele><time>2026-04-12T09:40:56.013Z</time></trkpt><trkpt lat="37.09917846145335" lon="13.932790932442286"><ele>81.0</ele><time>2026-04-12T09:40:58.013Z</time></trkpt><trkpt lat="37.099237534854524" lon="13.932878772650225"><ele>81.0</ele><time>2026-04-12T09:41:01.013Z</time></trkpt><trkpt lat="37.09927330685551" lon="13.932954000590335"><ele>81.0</ele><time>2026-04-12T09:41:04.014Z</time></trkpt><trkpt lat="37.0993122128482" lon="13.933062229996334"><ele>81.0</ele><time>2026-04-12T09:41:07.014Z</time></trkpt><trkpt lat="37.09932521924149" lon="13.933148230433883"><ele>81.0</ele><time>2026-04-12T09:41:09.014Z</time></trkpt><trkpt lat="37.09936371094441" lon="13.93321703487365"><ele>81.0</ele><time>2026-04-12T09:41:11.014Z</time></trkpt><trkpt lat="37.09938557633327" lon="13.933293028630029"><ele>81.0</ele><time>2026-04-12T09:41:13.014Z</time></trkpt><trkpt lat="37.099409705939095" lon="13.933373710522575"><ele>81.0</ele><time>2026-04-12T09:41:15.014Z</time></trkpt><trkpt lat="37.09944633776704" lon="13.933453831809864"><ele>81.0</ele><time>2026-04-12T09:41:17.014Z</time></trkpt><trkpt lat="37.09947737851765" lon="13.93353459173386"><ele>81.0</ele><time>2026-04-12T09:41:19.014Z</time></trkpt><trkpt lat="37.09951232639814" lon="13.933641682038958"><ele>79.66666666666667</ele><time>2026-04-12T09:41:22.014Z</time></trkpt><trkpt lat="37.09953932230296" lon="13.933726736290067"><ele>78.33333333333333</ele><time>2026-04-12T09:41:24.014Z</time></trkpt><trkpt lat="37.09954116365339" lon="13.933811137470375"><ele>77.0</ele><time>2026-04-12T09:41:26.014Z</time></trkpt><trkpt lat="37.099558265001086" lon="13.933922225627256"><ele>75.66666666666666</ele><time>2026-04-12T09:41:29.014Z</time></trkpt><trkpt lat="37.09958136616457" lon="13.934027914496784"><ele>74.33333333333333</ele><time>2026-04-12T09:41:32.014Z</time></trkpt><trkpt lat="37.099591942783036" lon="13.934107198906162"><ele>73.0</ele><time>2026-04-12T09:41:34.014Z</time></trkpt><trkpt lat="37.099602412123446" lon="13.934207423966829"><ele>70.16666666666666</ele><time>2026-04-12T09:41:37.014Z</time></trkpt><trkpt lat="37.09960124850035" lon="13.934319006368595"><ele>67.33333333333333</ele><time>2026-04-12T09:41:40.014Z</time></trkpt><trkpt lat="37.09960418190422" lon="13.934421006665625"><ele>64.5</ele><time>2026-04-12T09:41:43.014Z</time></trkpt><trkpt lat="37.099605000185015" lon="13.934525307810182"><ele>61.66666666666667</ele><time>2026-04-12T09:41:46.014Z</time></trkpt><trkpt lat="37.099596766349" lon="13.934625091279571"><ele>58.833333333333336</ele><time>2026-04-12T09:41:49.014Z</time></trkpt><trkpt lat="37.09959632451361" lon="13.93471181461489"><ele>56.0</ele><time>2026-04-12T09:41:52.015Z</time></trkpt><trkpt lat="37.09961752240198" lon="13.934820879112815"><ele>56.0</ele><time>2026-04-12T09:41:55.015Z</time></trkpt><trkpt lat="37.099632821676856" lon="13.934920732882398"><ele>56.0</ele><time>2026-04-12T09:41:58.015Z</time></trkpt><trkpt lat="37.0996456110358" lon="13.935004207615306"><ele>56.0</ele><time>2026-04-12T09:42:01.015Z</time></trkpt><trkpt lat="37.09965920886312" lon="13.93509295908404"><ele>56.0</ele><time>2026-04-12T09:42:04.015Z</time></trkpt><trkpt lat="37.09969820870028" lon="13.935163755851907"><ele>56.0</ele><time>2026-04-12T09:42:06.015Z</time></trkpt><trkpt lat="37.09972926490118" lon="13.93525748539568"><ele>56.0</ele><time>2026-04-12T09:42:09.015Z</time></trkpt><trkpt lat="37.099756065146785" lon="13.935338465926487"><ele>56.0</ele><time>2026-04-12T09:42:12.015Z</time></trkpt><trkpt lat="37.0997791214861" lon="13.935412193303877"><ele>53.00000000000001</ele><time>2026-04-12T09:42:14.015Z</time></trkpt><trkpt lat="37.099783195492655" lon="13.935514528723374"><ele>50.0</ele><time>2026-04-12T09:42:17.015Z</time></trkpt><trkpt lat="37.09975870148808" lon="13.935601370717"><ele>47.0</ele><time>2026-04-12T09:42:20.015Z</time></trkpt><trkpt lat="37.099730331627" lon="13.935682356452718"><ele>44.0</ele><time>2026-04-12T09:42:23.015Z</time></trkpt><trkpt lat="37.099704176593406" lon="13.935782694971858"><ele>41.0</ele><time>2026-04-12T09:42:26.015Z</time></trkpt><trkpt lat="37.09969313259637" lon="13.935904568676092"><ele>38.0</ele><time>2026-04-12T09:42:28.015Z</time></trkpt><trkpt lat="37.099705002406694" lon="13.935988860770085"><ele>37.166666666666664</ele><time>2026-04-12T09:42:30.015Z</time></trkpt><trkpt lat="37.09974538278976" lon="13.936121434380798"><ele>36.33333333333333</ele><time>2026-04-12T09:42:32.015Z</time></trkpt><trkpt lat="37.09979575915104" lon="13.93620460551273"><ele>35.5</ele><time>2026-04-12T09:42:34.015Z</time></trkpt><trkpt lat="37.09984155805557" lon="13.936274184457888"><ele>34.666666666666664</ele><time>2026-04-12T09:42:35.015Z</time></trkpt><trkpt lat="37.09989347917136" lon="13.93634510291578"><ele>33.833333333333336</ele><time>2026-04-12T09:42:36.015Z</time></trkpt><trkpt lat="37.09995707818439" lon="13.93640327233981"><ele>33.0</ele><time>2026-04-12T09:42:37.015Z</time></trkpt><trkpt lat="37.1000473904501" lon="13.936491095439765"><ele>33.0</ele><time>2026-04-12T09:42:39.015Z</time></trkpt><trkpt lat="37.10015320898424" lon="13.936592896225516"><ele>33.0</ele><time>2026-04-12T09:42:41.016Z</time></trkpt><trkpt lat="37.10022316530983" lon="13.936659960300421"><ele>33.0</ele><time>2026-04-12T09:42:42.016Z</time></trkpt><trkpt lat="37.10028985850661" lon="13.936723896171076"><ele>33.0</ele><time>2026-04-12T09:42:43.016Z</time></trkpt><trkpt lat="37.10035964186409" lon="13.93676891027956"><ele>33.0</ele><time>2026-04-12T09:42:44.016Z</time></trkpt><trkpt lat="37.10040919298161" lon="13.936833811595678"><ele>31.333333333333332</ele><time>2026-04-12T09:42:45.016Z</time></trkpt><trkpt lat="37.10047108537341" lon="13.936878302422512"><ele>29.666666666666668</ele><time>2026-04-12T09:42:46.016Z</time></trkpt><trkpt lat="37.1005272242487" lon="13.93693552335055"><ele>28.0</ele><time>2026-04-12T09:42:47.016Z</time></trkpt><trkpt lat="37.10057986329749" lon="13.936989498003072"><ele>26.333333333333336</ele><time>2026-04-12T09:42:48.016Z</time></trkpt><trkpt lat="37.10063683507627" lon="13.93703147707755"><ele>24.666666666666668</ele><time>2026-04-12T09:42:49.016Z</time></trkpt><trkpt lat="37.10074002072917" lon="13.937119522279524"><ele>23.0</ele><time>2026-04-12T09:42:51.016Z</time></trkpt><trkpt lat="37.10079266564514" lon="13.937163674977674"><ele>22.666666666666668</ele><time>2026-04-12T09:42:52.016Z</time></trkpt><trkpt lat="37.10088469795264" lon="13.937246765906073"><ele>22.333333333333336</ele><time>2026-04-12T09:42:54.016Z</time></trkpt><trkpt lat="37.10097156170251" lon="13.937325215581241"><ele>22.0</ele><time>2026-04-12T09:42:56.016Z</time></trkpt><trkpt lat="37.101048892477536" lon="13.937384662631366"><ele>21.666666666666668</ele><time>2026-04-12T09:42:58.016Z</time></trkpt><trkpt lat="37.10111451000359" lon="13.937405565690687"><ele>21.333333333333332</ele><time>2026-04-12T09:43:01.016Z</time></trkpt><trkpt lat="37.101175291595936" lon="13.937430057538869"><ele>21.0</ele><time>2026-04-12T09:43:07.016Z</time></trkpt><trkpt lat="37.1012645078682" lon="13.937476180065724"><ele>21.0</ele><time>2026-04-12T09:43:10.016Z</time></trkpt><trkpt lat="37.10134706819348" lon="13.937507047432696"><ele>21.0</ele><time>2026-04-12T09:43:13.016Z</time></trkpt><trkpt lat="37.101395326589106" lon="13.937587708628712"><ele>21.0</ele><time>2026-04-12T09:43:16.016Z</time></trkpt><trkpt lat="37.10147186723481" lon="13.937631679726541"><ele>21.0</ele><time>2026-04-12T09:43:19.016Z</time></trkpt><trkpt lat="37.10155179507858" lon="13.937678943069791"><ele>21.0</ele><time>2026-04-12T09:43:21.016Z</time></trkpt><trkpt lat="37.10163178423401" lon="13.93770316843172"><ele>21.0</ele><time>2026-04-12T09:43:23.016Z</time></trkpt><trkpt lat="37.10169444624005" lon="13.937755173042468"><ele>20.166666666666668</ele><time>2026-04-12T09:43:25.016Z</time></trkpt><trkpt lat="37.10174775609352" lon="13.937824107448556"><ele>19.333333333333332</ele><time>2026-04-12T09:43:27.016Z</time></trkpt><trkpt lat="37.1017957517287" lon="13.937908624724196"><ele>18.5</ele><time>2026-04-12T09:43:29.017Z</time></trkpt><trkpt lat="37.10184528785481" lon="13.937997813711252"><ele>17.666666666666664</ele><time>2026-04-12T09:43:31.017Z</time></trkpt><trkpt lat="37.10189048704466" lon="13.938080759172756"><ele>16.833333333333332</ele><time>2026-04-12T09:43:33.017Z</time></trkpt><trkpt lat="37.10192875825963" lon="13.938155547962117"><ele>16.0</ele><time>2026-04-12T09:43:35.017Z</time></trkpt><trkpt lat="37.10195740390755" lon="13.938239736545846"><ele>15.999999999999998</ele><time>2026-04-12T09:43:37.017Z</time></trkpt><trkpt lat="37.10200214319" lon="13.938302487096589"><ele>16.0</ele><time>2026-04-12T09:43:39.017Z</time></trkpt><trkpt lat="37.102064495837965" lon="13.93839516293957"><ele>16.0</ele><time>2026-04-12T09:43:42.017Z</time></trkpt><trkpt lat="37.102111075763304" lon="13.938484826923146"><ele>16.0</ele><time>2026-04-12T09:43:45.017Z</time></trkpt><trkpt lat="37.10215447871364" lon="13.938544647192607"><ele>15.999999999999998</ele><time>2026-04-12T09:43:47.017Z</time></trkpt><trkpt lat="37.102190562895295" lon="13.938626101170792"><ele>16.0</ele><time>2026-04-12T09:43:49.017Z</time></trkpt><trkpt lat="37.10222547067136" lon="13.938713676962719"><ele>15.833333333333332</ele><time>2026-04-12T09:43:51.017Z</time></trkpt><trkpt lat="37.10225408186367" lon="13.93880056787727"><ele>15.666666666666666</ele><time>2026-04-12T09:43:53.017Z</time></trkpt><trkpt lat="37.10230597230854" lon="13.93888392252167"><ele>15.5</ele><time>2026-04-12T09:43:55.017Z</time></trkpt><trkpt lat="37.10234541359905" lon="13.938958376067554"><ele>15.333333333333332</ele><time>2026-04-12T09:43:56.017Z</time></trkpt><trkpt lat="37.10240251320156" lon="13.93907409014822"><ele>15.166666666666666</ele><time>2026-04-12T09:43:58.017Z</time></trkpt><trkpt lat="37.102434068607906" lon="13.939150520058057"><ele>15.0</ele><time>2026-04-12T09:44:00.017Z</time></trkpt><trkpt lat="37.102488637078466" lon="13.939219546273538"><ele>14.833333333333334</ele><time>2026-04-12T09:44:03.017Z</time></trkpt><trkpt lat="37.102527871214775" lon="13.939292590644625"><ele>14.666666666666668</ele><time>2026-04-12T09:44:06.017Z</time></trkpt><trkpt lat="37.102556079694345" lon="13.93938239446849"><ele>14.5</ele><time>2026-04-12T09:44:08.017Z</time></trkpt><trkpt lat="37.102610238020546" lon="13.93946095265223"><ele>14.333333333333334</ele><time>2026-04-12T09:44:10.017Z</time></trkpt><trkpt lat="37.10265865382473" lon="13.939543306420397"><ele>14.166666666666668</ele><time>2026-04-12T09:44:12.017Z</time></trkpt><trkpt lat="37.102703686975644" lon="13.939619039295998"><ele>14.0</ele><time>2026-04-12T09:44:14.017Z</time></trkpt><trkpt lat="37.10273699182786" lon="13.93968679170964"><ele>14.000000000000002</ele><time>2026-04-12T09:44:16.018Z</time></trkpt><trkpt lat="37.10277467084437" lon="13.939764274944215"><ele>14.0</ele><time>2026-04-12T09:44:18.018Z</time></trkpt><trkpt lat="37.10280544386077" lon="13.939837026477786"><ele>14.0</ele><time>2026-04-12T09:44:20.018Z</time></trkpt><trkpt lat="37.10286724068614" lon="13.939916176731916"><ele>14.0</ele><time>2026-04-12T09:44:23.018Z</time></trkpt><trkpt lat="37.102906837980726" lon="13.939999828174294"><ele>14.000000000000002</ele><time>2026-04-12T09:44:26.018Z</time></trkpt><trkpt lat="37.102801932745" lon="13.940077123244986"><ele>14.0</ele><time>2026-04-12T09:44:28.018Z</time></trkpt><trkpt lat="37.10273194141131" lon="13.940113561709898"><ele>14.2</ele><time>2026-04-12T09:44:30.018Z</time></trkpt><trkpt lat="37.102655547465375" lon="13.940149311392863"><ele>14.399999999999999</ele><time>2026-04-12T09:44:32.018Z</time></trkpt><trkpt lat="37.10254432423407" lon="13.94018372175017"><ele>14.6</ele><time>2026-04-12T09:44:34.018Z</time></trkpt><trkpt lat="37.102422845429174" lon="13.940226811708376"><ele>14.8</ele><time>2026-04-12T09:44:36.018Z</time></trkpt><trkpt lat="37.10235828767758" lon="13.94025303946576"><ele>15.0</ele><time>2026-04-12T09:44:37.018Z</time></trkpt><trkpt lat="37.10228634663438" lon="13.940282266624715"><ele>14.4</ele><time>2026-04-12T09:44:38.018Z</time></trkpt><trkpt lat="37.10217890381679" lon="13.94032392698227"><ele>13.8</ele><time>2026-04-12T09:44:40.018Z</time></trkpt><trkpt lat="37.10211371265697" lon="13.940346830957894"><ele>13.2</ele><time>2026-04-12T09:44:41.018Z</time></trkpt><trkpt lat="37.10198286106287" lon="13.940407145826663"><ele>12.6</ele><time>2026-04-12T09:44:43.018Z</time></trkpt><trkpt lat="37.10191344961651" lon="13.940445048756713"><ele>12.0</ele><time>2026-04-12T09:44:44.018Z</time></trkpt><trkpt lat="37.10181356147026" lon="13.94049613355588"><ele>12.0</ele><time>2026-04-12T09:44:46.018Z</time></trkpt><trkpt lat="37.101732295746324" lon="13.940521103275204"><ele>12.0</ele><time>2026-04-12T09:44:49.018Z</time></trkpt><trkpt lat="37.10165345410865" lon="13.940566339443446"><ele>12.0</ele><time>2026-04-12T09:44:51.018Z</time></trkpt><trkpt lat="37.10154519311779" lon="13.940648660458518"><ele>12.0</ele><time>2026-04-12T09:44:53.018Z</time></trkpt><trkpt lat="37.101480807830605" lon="13.94068825507296"><ele>12.0</ele><time>2026-04-12T09:44:54.018Z</time></trkpt><trkpt lat="37.101417017954944" lon="13.94073689227399"><ele>12.0</ele><time>2026-04-12T09:44:55.018Z</time></trkpt><trkpt lat="37.1013572372695" lon="13.940787096299202"><ele>11.8</ele><time>2026-04-12T09:44:56.018Z</time></trkpt><trkpt lat="37.10129357516344" lon="13.940839686848664"><ele>11.6</ele><time>2026-04-12T09:44:57.018Z</time></trkpt><trkpt lat="37.10121629456898" lon="13.940896651152379"><ele>11.4</ele><time>2026-04-12T09:44:58.018Z</time></trkpt><trkpt lat="37.10114763835207" lon="13.940930120894262"><ele>11.200000000000001</ele><time>2026-04-12T09:44:59.018Z</time></trkpt><trkpt lat="37.10104371133085" lon="13.94097124572021"><ele>11.0</ele><time>2026-04-12T09:45:01.018Z</time></trkpt><trkpt lat="37.10093725171898" lon="13.94102737961147"><ele>10.666666666666666</ele><time>2026-04-12T09:45:03.019Z</time></trkpt><trkpt lat="37.10087263952388" lon="13.941055576131138"><ele>10.333333333333332</ele><time>2026-04-12T09:45:04.019Z</time></trkpt><trkpt lat="37.10078410580755" lon="13.941067398143831"><ele>10.0</ele><time>2026-04-12T09:45:05.019Z</time></trkpt><trkpt lat="37.100683189526194" lon="13.941064611511"><ele>9.666666666666666</ele><time>2026-04-12T09:45:06.019Z</time></trkpt><trkpt lat="37.10058535207653" lon="13.941042888995025"><ele>9.333333333333334</ele><time>2026-04-12T09:45:07.019Z</time></trkpt><trkpt lat="37.10051967569251" lon="13.941020739409508"><ele>9.0</ele><time>2026-04-12T09:45:08.019Z</time></trkpt><trkpt lat="37.10043231511258" lon="13.941016491755075"><ele>8.833333333333334</ele><time>2026-04-12T09:45:10.019Z</time></trkpt><trkpt lat="37.100360488746375" lon="13.941006094991444"><ele>8.666666666666666</ele><time>2026-04-12T09:45:12.019Z</time></trkpt><trkpt lat="37.10029384263872" lon="13.940983505491147"><ele>8.5</ele><time>2026-04-12T09:45:14.019Z</time></trkpt><trkpt lat="37.100218384733225" lon="13.940957290587251"><ele>8.333333333333332</ele><time>2026-04-12T09:45:16.019Z</time></trkpt><trkpt lat="37.10013999565641" lon="13.940923792849427"><ele>8.166666666666666</ele><time>2026-04-12T09:45:18.019Z</time></trkpt><trkpt lat="37.10003895542156" lon="13.94090528247288"><ele>8.0</ele><time>2026-04-12T09:45:20.019Z</time></trkpt><trkpt lat="37.0999488655044" lon="13.940894332097999"><ele>8.0</ele><time>2026-04-12T09:45:22.019Z</time></trkpt><trkpt lat="37.099865419379235" lon="13.9408888083684"><ele>8.0</ele><time>2026-04-12T09:45:24.019Z</time></trkpt><trkpt lat="37.09980586410223" lon="13.940853136755312"><ele>10.0</ele><time>2026-04-12T09:45:26.019Z</time></trkpt></trkseg></trk></gpx>